Time;durP1;ratioP1;P1;durP2;ratioP2;P2;SDS_P1;SDS_P2;PMS_P1;PMS_P2;Temp;Humidity;BMP_temperature;BMP_pressure;BME280_temperature;BME280_humidity;BME280_pressure;Samples;Min_cycle;Max_cycle;Signal;HPM_P1;HPM_P2
2022/04/12 00:00:33;;;;;;;5.55;3.50;;;;;;;19.52;39.40;101518.44;4913987;29;20128;-74
2022/04/12 00:03:01;;;;;;;4.80;3.20;;;;;;;19.52;39.42;101512.19;4914474;29;20059;-74
2022/04/12 00:05:28;;;;;;;4.38;3.20;;;;;;;19.51;39.26;101519.41;4915835;29;20400;-74
2022/04/12 00:07:59;;;;;;;4.10;3.28;;;;;;;19.51;39.45;101511.34;4917511;29;20048;-74
2022/04/12 00:10:30;;;;;;;4.90;3.40;;;;;;;19.51;39.39;101510.50;4918015;29;20056;-74
2022/04/12 00:12:59;;;;;;;4.65;3.50;;;;;;;19.50;39.64;101509.66;4916705;29;20063;-74
2022/04/12 00:15:27;;;;;;;4.47;2.97;;;;;;;19.51;39.42;101510.50;4916219;29;20500;-73
2022/04/12 00:20:41;;;;;;;4.65;3.58;;;;;;;19.51;39.37;101510.50;4916837;29;20052;-74
2022/04/12 00:23:08;;;;;;;5.60;3.80;;;;;;;19.50;39.32;101508.78;4897073;29;20056;-74
2022/04/12 00:25:36;;;;;;;5.55;3.72;;;;;;;19.50;39.37;101514.16;4896218;29;20040;-74
2022/04/12 00:28:04;;;;;;;4.28;3.13;;;;;;;19.50;39.37;101508.78;4881841;29;20071;-74
2022/04/12 00:30:31;;;;;;;5.93;3.30;;;;;;;19.49;39.22;101496.34;4898679;29;20079;-74
2022/04/12 00:32:58;;;;;;;4.65;3.55;;;;;;;19.49;39.34;101499.03;4898851;29;20048;-72
2022/04/12 00:35:26;;;;;;;4.78;3.38;;;;;;;19.49;39.28;101509.78;4899650;29;20059;-73
2022/04/12 00:37:54;;;;;;;4.20;3.38;;;;;;;19.49;39.25;101502.56;4898348;29;20416;-74
2022/04/12 00:40:26;;;;;;;5.53;3.20;;;;;;;19.49;39.25;101501.72;4897772;29;20048;-74
2022/04/12 00:42:54;;;;;;;4.65;3.75;;;;;;;19.48;39.19;101511.56;4898062;29;20404;-74
2022/04/12 00:45:22;;;;;;;4.32;3.28;;;;;;;19.48;39.18;101508.03;4897390;29;20059;-73
2022/04/12 00:47:49;;;;;;;4.80;3.00;;;;;;;19.49;39.28;101513.31;4904083;29;20051;-75
2022/04/12 00:50:17;;;;;;;4.47;3.05;;;;;;;19.48;39.20;101503.53;4917350;29;20052;-74
2022/04/12 00:52:48;;;;;;;5.78;3.88;;;;;;;19.48;39.17;101510.72;4915623;29;20048;-74
2022/04/12 00:55:17;;;;;;;6.25;3.53;;;;;;;19.49;39.14;101504.41;4915996;29;20067;-76
2022/04/12 00:57:45;;;;;;;4.10;3.20;;;;;;;19.48;39.33;101506.19;4916063;29;20044;-75
2022/04/12 01:00:13;;;;;;;4.07;3.03;;;;;;;19.48;39.27;101499.97;4916155;29;20048;-74
2022/04/12 01:02:40;;;;;;;5.10;3.70;;;;;;;19.48;39.26;101511.56;4916712;29;20055;-74
2022/04/12 01:05:08;;;;;;;4.38;3.70;;;;;;;19.49;39.39;101515.16;4916926;29;20052;-74
2022/04/12 01:07:36;;;;;;;5.32;3.50;;;;;;;19.49;39.43;101512.47;4917603;29;20056;-74
2022/04/12 01:10:05;;;;;;;5.80;3.90;;;;;;;19.48;39.36;101511.56;4917288;29;20051;-74
2022/04/12 01:12:38;;;;;;;4.80;3.60;;;;;;;19.50;39.32;101511.47;4899221;29;20048;-74
2022/04/12 01:15:18;;;;;;;4.68;3.80;;;;;;;19.50;39.21;101514.16;4916590;29;20060;-73
2022/04/12 01:17:46;;;;;;;6.07;3.55;;;;;;;19.49;39.34;101515.16;4883423;29;20048;-74
2022/04/12 01:20:16;;;;;;;4.07;3.15;;;;;;;19.49;39.27;101512.47;4916517;29;20051;-74
2022/04/12 01:22:55;;;;;;;4.72;3.28;;;;;;;19.49;39.34;101512.47;4913967;29;20420;-75
2022/04/12 01:25:22;;;;;;;4.78;3.85;;;;;;;19.48;39.53;101506.19;4895710;29;20512;-75
2022/04/12 01:27:50;;;;;;;4.63;3.53;;;;;;;19.48;39.17;101508.03;4896279;29;20584;-73
2022/04/12 01:30:18;;;;;;;3.85;2.88;;;;;;;19.48;39.40;101508.03;4897719;29;20386;-74
2022/04/12 01:32:45;;;;;;;4.43;3.20;;;;;;;19.47;39.30;101515.25;4897654;29;20400;-75
2022/04/12 01:35:13;;;;;;;6.13;4.05;;;;;;;19.48;39.47;101505.34;4896217;29;20049;-75
2022/04/12 01:37:40;;;;;;;6.03;3.40;;;;;;;19.47;39.27;101509.00;4897290;29;20040;-74
2022/04/12 01:40:09;;;;;;;7.22;3.38;;;;;;;19.47;39.33;101511.69;4898004;29;20145;-74
2022/04/12 01:42:38;;;;;;;4.80;3.90;;;;;;;19.47;39.36;101504.50;4879866;29;20132;-74
2022/04/12 01:45:07;;;;;;;5.15;3.75;;;;;;;19.46;39.30;101497.41;4894713;29;20064;-74
2022/04/12 01:47:35;;;;;;;4.72;3.28;;;;;;;19.46;39.61;101504.63;4884431;29;20151;-74
2022/04/12 01:50:07;;;;;;;4.25;3.58;;;;;;;19.46;39.28;101504.63;4916667;29;20056;-74
2022/04/12 01:52:34;;;;;;;6.82;3.78;;;;;;;19.45;39.20;101506.47;4916181;29;20048;-74
2022/04/12 01:55:03;;;;;;;6.35;3.78;;;;;;;19.45;39.31;101511.84;4915958;29;20052;-74
2022/04/12 01:57:30;;;;;;;5.32;3.33;;;;;;;19.46;39.15;101512.69;4916104;29;20044;-74
2022/04/12 01:59:58;;;;;;;5.38;3.75;;;;;;;19.44;38.97;101514.63;4916995;29;20406;-74
2022/04/12 02:02:26;;;;;;;4.93;3.17;;;;;;;19.43;39.08;101505.69;4915961;29;20182;-74
2022/04/12 02:04:53;;;;;;;4.88;3.20;;;;;;;19.43;39.40;101508.38;4914837;29;20048;-74
2022/04/12 02:07:21;;;;;;;4.80;3.78;;;;;;;19.43;39.18;101511.06;4914811;29;20044;-74
2022/04/12 02:09:48;;;;;;;7.05;3.85;;;;;;;19.43;39.24;101502.16;4915874;29;20403;-74
2022/04/12 02:12:15;;;;;;;4.65;3.53;;;;;;;19.42;39.16;101509.38;4914247;29;20067;-74
2022/04/12 02:14:43;;;;;;;4.18;3.45;;;;;;;19.42;39.11;101505.84;4915458;29;20124;-74
2022/04/12 02:17:10;;;;;;;5.43;3.90;;;;;;;19.41;39.26;101513.03;4914904;29;20048;-74
2022/04/12 02:19:38;;;;;;;6.85;3.17;;;;;;;19.41;39.23;101507.66;4898182;29;20059;-74
2022/04/12 02:22:05;;;;;;;4.63;3.67;;;;;;;19.43;39.08;101518.28;4915837;29;20063;-74
2022/04/12 02:24:32;;;;;;;5.60;3.67;;;;;;;19.41;38.94;101509.50;4908202;29;20041;-74
2022/04/12 02:27:00;;;;;;;4.80;3.40;;;;;;;19.41;39.00;101514.88;4902830;29;20048;-74
2022/04/12 02:29:28;;;;;;;4.40;3.42;;;;;;;19.40;39.20;101510.44;4896435;29;20116;-74
2022/04/12 02:31:55;;;;;;;4.95;3.47;;;;;;;19.40;38.97;101513.97;4897014;29;20045;-74
2022/04/12 02:34:23;;;;;;;4.88;3.55;;;;;;;19.41;38.93;101520.25;4895056;29;20057;-74
2022/04/12 02:36:50;;;;;;;6.30;3.95;;;;;;;19.40;38.99;101502.38;4895465;29;20052;-73
2022/04/12 02:39:17;;;;;;;3.97;3.17;;;;;;;19.39;38.87;101498.84;4895872;29;20053;-73
2022/04/12 02:41:45;;;;;;;4.85;3.13;;;;;;;19.39;38.99;101496.16;4896649;29;20481;-73
2022/04/12 02:44:12;;;;;;;5.28;3.47;;;;;;;19.40;38.88;101499.69;4879723;29;20064;-73
2022/04/12 02:46:40;;;;;;;4.22;3.28;;;;;;;19.39;38.99;101493.47;4895357;29;20052;-73
2022/04/12 02:49:08;;;;;;;5.13;3.60;;;;;;;19.39;38.96;101492.63;4895112;29;20064;-73
2022/04/12 02:51:35;;;;;;;4.35;3.55;;;;;;;19.39;38.92;101495.31;4914600;29;20488;-73
2022/04/12 02:54:03;;;;;;;3.58;2.95;;;;;;;19.37;38.84;101498.13;4914648;29;20055;-73
2022/04/12 02:56:30;;;;;;;5.72;3.40;;;;;;;19.38;38.85;101490.94;4915980;29;20048;-73
2022/04/12 02:58:58;;;;;;;4.03;2.88;;;;;;;19.38;39.02;101489.09;4915383;29;20055;-73
2022/04/12 03:01:25;;;;;;;4.20;3.05;;;;;;;19.39;38.82;101492.63;4915251;29;20055;-72
2022/04/12 03:03:53;;;;;;;4.75;3.00;;;;;;;19.36;38.89;101482.13;4915508;29;20070;-73
2022/04/12 03:06:20;;;;;;;5.53;3.65;;;;;;;19.37;38.71;101487.38;4898240;29;20131;-73
2022/04/12 03:08:47;;;;;;;4.60;3.40;;;;;;;19.36;38.48;101477.59;4914212;29;20040;-75
2022/04/12 03:11:15;;;;;;;4.53;3.00;;;;;;;19.36;38.84;101474.91;4914303;29;20515;-72
2022/04/12 03:13:42;;;;;;;5.00;3.78;;;;;;;19.35;38.67;101475.91;4914565;29;20048;-72
2022/04/12 03:16:10;;;;;;;3.92;2.95;;;;;;;19.34;38.61;101482.25;4915386;29;20500;-73
2022/04/12 03:18:37;;;;;;;4.50;3.08;;;;;;;19.35;38.56;101475.03;4914380;29;20389;-73
2022/04/12 03:21:05;;;;;;;5.97;3.10;;;;;;;19.35;38.64;101480.41;4912865;29;20048;-72
2022/04/12 03:23:33;;;;;;;4.47;2.95;;;;;;;19.35;38.84;101480.41;4914594;29;20060;-74
2022/04/12 03:26:00;;;;;;;4.72;3.08;;;;;;;19.35;38.54;101480.41;4898812;29;20059;-73
2022/04/12 03:28:28;;;;;;;4.68;2.95;;;;;;;19.34;38.78;101486.75;4895362;29;20056;-74
2022/04/12 03:30:55;;;;;;;4.88;2.92;;;;;;;19.34;38.67;101487.63;4896394;29;20059;-74
2022/04/12 03:33:22;;;;;;;4.95;3.28;;;;;;;19.34;38.67;101487.63;4896152;29;20056;-74
2022/04/12 03:35:50;;;;;;;4.03;2.83;;;;;;;19.33;38.65;101482.38;4895875;29;20120;-74
2022/04/12 03:38:17;;;;;;;3.70;3.00;;;;;;;19.34;38.65;101478.72;4895786;29;20051;-73
2022/04/12 03:40:46;;;;;;;4.68;2.50;;;;;;;19.33;38.59;101479.69;4898417;29;20048;-74
2022/04/12 03:43:14;;;;;;;3.65;3.08;;;;;;;19.32;38.63;101478.81;4897740;29;20056;-73
2022/04/12 03:45:41;;;;;;;4.63;3.40;;;;;;;19.33;38.80;101479.69;4898862;29;20060;-74
2022/04/12 03:48:09;;;;;;;3.55;2.75;;;;;;;19.32;38.69;101483.31;4900914;29;20032;-73
2022/04/12 03:50:37;;;;;;;5.03;3.08;;;;;;;19.32;38.46;101484.16;4897618;29;20136;-74
2022/04/12 03:53:05;;;;;;;4.97;3.03;;;;;;;19.32;38.67;101486.84;4881919;29;20059;-74
2022/04/12 03:55:38;;;;;;;4.88;2.50;;;;;;;19.31;38.58;101490.53;4881310;29;20492;-74
2022/04/12 03:58:08;;;;;;;3.80;2.78;;;;;;;19.32;38.65;101486.00;4898899;29;20496;-74
2022/04/12 04:00:35;;;;;;;3.38;2.65;;;;;;;19.31;38.45;101481.63;4898365;29;20059;-74
2022/04/12 04:03:03;;;;;;;4.35;2.60;;;;;;;19.31;38.56;101489.66;4898065;28;20057;-74
2022/04/12 04:05:31;;;;;;;4.38;2.83;;;;;;;19.30;38.75;101479.91;4898252;29;20048;-73
2022/04/12 04:07:58;;;;;;;3.30;2.40;;;;;;;19.30;38.40;101487.97;4899626;29;20044;-74
2022/04/12 04:10:26;;;;;;;3.95;2.95;;;;;;;19.30;38.50;101485.28;4899354;29;20052;-73
2022/04/12 04:12:53;;;;;;;5.40;3.10;;;;;;;19.30;38.55;101494.19;4881930;29;20049;-74
2022/04/12 04:15:21;;;;;;;3.60;2.47;;;;;;;19.29;38.60;101489.78;4898429;29;20412;-74
2022/04/12 04:17:49;;;;;;;4.45;2.63;;;;;;;19.29;38.56;101489.78;4898617;29;20097;-74
2022/04/12 04:20:18;;;;;;;4.30;2.90;;;;;;;19.29;38.61;101488.94;4898409;29;20052;-74
2022/04/12 04:22:46;;;;;;;3.40;2.70;;;;;;;19.28;38.32;101488.06;4898388;29;20492;-74
2022/04/12 04:25:15;;;;;;;3.63;2.30;;;;;;;19.30;38.53;101496.03;4898685;29;20068;-72
2022/04/12 04:27:43;;;;;;;5.53;2.83;;;;;;;19.28;38.45;101493.44;4896969;29;20040;-74
2022/04/12 04:30:11;;;;;;;4.55;2.22;;;;;;;19.27;38.50;101494.41;4898328;29;20063;-74
2022/04/12 04:32:40;;;;;;;4.65;2.60;;;;;;;19.27;38.57;101497.09;4898203;29;20056;-74
2022/04/12 04:35:07;;;;;;;2.72;2.00;;;;;;;19.27;38.51;101494.41;4897158;29;20049;-74
2022/04/12 04:37:46;;;;;;;4.00;2.83;;;;;;;19.26;38.62;101488.19;4880700;29;20052;-74
2022/04/12 04:40:14;;;;;;;3.92;2.47;;;;;;;19.27;38.57;101487.22;4881539;29;20060;-74
2022/04/12 04:42:42;;;;;;;4.90;2.47;;;;;;;19.28;38.53;101490.75;4881826;29;20400;-74
2022/04/12 04:45:13;;;;;;;3.88;2.80;;;;;;;19.27;38.52;101495.25;4897684;29;20382;-74
2022/04/12 04:47:54;;;;;;;3.65;2.42;;;;;;;19.26;38.47;101496.25;4903336;29;20407;-74
2022/04/12 04:50:24;;;;;;;3.55;2.30;;;;;;;19.26;38.49;101495.38;4916822;29;20056;-74
2022/04/12 04:52:51;;;;;;;3.30;2.13;;;;;;;19.26;38.61;101504.28;4915127;29;20059;-74
2022/04/12 04:55:19;;;;;;;5.32;2.20;;;;;;;19.27;38.58;101502.47;4915906;29;20055;-74
2022/04/12 04:57:47;;;;;;;3.80;2.70;;;;;;;19.26;38.55;101506.13;4916284;28;20055;-74
2022/04/12 05:00:17;;;;;;;3.35;2.35;;;;;;;19.26;38.52;101506.13;4915842;29;20059;-74
2022/04/12 05:03:05;;;;;;;4.68;2.50;;;;;;;19.26;38.51;101509.66;4915911;29;20044;-74
2022/04/12 05:05:32;;;;;;;3.03;2.30;;;;;;;19.26;38.39;101516.88;4921808;28;20063;-74
2022/04/12 05:08:02;;;;;;;4.38;2.28;;;;;;;19.25;38.40;101517.84;4916789;29;20044;-73
2022/04/12 05:10:32;;;;;;;5.47;2.30;;;;;;;19.25;38.47;101520.53;4917345;29;20059;-74
2022/04/12 05:13:01;;;;;;;4.55;2.47;;;;;;;19.25;38.75;101524.06;4916011;29;20044;-75
2022/04/12 05:15:29;;;;;;;4.20;2.13;;;;;;;19.24;38.48;101525.03;4899925;28;20060;-75
2022/04/12 05:18:02;;;;;;;3.83;2.35;;;;;;;19.24;38.35;101527.72;4914692;29;20063;-74
2022/04/12 05:20:30;;;;;;;4.43;2.80;;;;;;;19.23;38.41;101531.34;4916214;29;20067;-74
2022/04/12 05:22:57;;;;;;;3.63;2.28;;;;;;;19.23;38.40;101531.34;4916357;29;20496;-75
2022/04/12 05:25:24;;;;;;;4.15;2.42;;;;;;;19.23;38.40;101528.69;4898048;29;20073;-74
2022/04/12 05:27:52;;;;;;;3.95;2.53;;;;;;;19.23;38.39;101531.34;4888107;29;20052;-74
2022/04/12 05:30:21;;;;;;;5.13;2.67;;;;;;;19.23;38.36;101531.34;4896728;28;20049;-74
2022/04/12 05:32:48;;;;;;;4.20;2.70;;;;;;;19.24;38.31;101534.91;4897401;29;20119;-75
2022/04/12 05:35:16;;;;;;;3.70;2.50;;;;;;;19.22;38.38;101532.34;4896849;29;20048;-75
2022/04/12 05:37:45;;;;;;;3.78;3.00;;;;;;;19.23;38.46;101538.56;4896929;29;20071;-74
2022/04/12 05:40:13;;;;;;;4.25;2.60;;;;;;;19.22;38.28;101543.06;4897490;29;20060;-75
2022/04/12 05:42:42;;;;;;;5.47;2.40;;;;;;;19.22;38.29;101543.06;4896302;29;20056;-74
2022/04/12 05:45:10;;;;;;;5.10;2.90;;;;;;;19.21;38.18;101545.88;4897497;29;20055;-75
2022/04/12 05:47:46;;;;;;;3.40;2.33;;;;;;;19.21;38.23;101546.75;4902452;28;20048;-74
2022/04/12 05:50:15;;;;;;;6.45;2.33;;;;;;;19.22;38.09;101550.28;4896471;29;20052;-74
2022/04/12 05:52:43;;;;;;;3.17;2.10;;;;;;;19.22;38.11;101545.75;4896038;29;20045;-74
2022/04/12 05:55:16;;;;;;;4.47;2.63;;;;;;;19.22;38.16;101539.53;4896622;29;20075;-74
2022/04/12 05:58:00;;;;;;;4.35;2.80;;;;;;;19.22;38.22;101548.44;4896719;29;20488;-74
2022/04/12 06:00:29;;;;;;;3.88;2.33;;;;;;;19.22;38.04;101544.91;4880283;29;20049;-74
2022/04/12 06:02:57;;;;;;;6.35;2.55;;;;;;;19.23;38.09;101549.31;4895711;29;20061;-75
2022/04/12 06:05:31;;;;;;;3.17;2.28;;;;;;;19.22;38.08;101551.13;4896032;29;20057;-74
2022/04/12 06:08:00;;;;;;;3.28;2.65;;;;;;;19.23;37.88;101554.66;4880031;29;20056;-74
2022/04/12 06:10:28;;;;;;;4.25;2.38;;;;;;;19.22;37.98;101559.19;4897025;29;20052;-74
2022/04/12 06:12:58;;;;;;;4.32;2.20;;;;;;;19.22;37.69;101556.50;4897422;29;20059;-74
2022/04/12 06:15:27;;;;;;;5.63;2.60;;;;;;;19.22;37.79;101558.34;4897074;28;20068;-74
2022/04/12 06:17:54;;;;;;;3.13;1.88;;;;;;;19.22;37.89;101556.50;4896089;29;20044;-74
2022/04/12 06:20:22;;;;;;;3.85;2.08;;;;;;;19.22;37.87;101553.81;4896884;29;20053;-74
2022/04/12 06:22:50;;;;;;;4.03;2.83;;;;;;;19.22;37.79;101555.66;4896587;29;20048;-75
2022/04/12 06:25:20;;;;;;;2.65;2.00;;;;;;;19.23;38.04;101560.03;4895710;29;20445;-75
2022/04/12 06:27:52;;;;;;;2.83;2.17;;;;;;;19.23;37.83;101560.03;4896320;29;20115;-74
2022/04/12 06:30:22;;;;;;;3.40;2.30;;;;;;;19.23;37.99;101566.25;4884224;29;20052;-74
2022/04/12 06:32:50;;;;;;;2.53;2.00;;;;;;;19.24;37.98;101561.75;4915542;29;20104;-74
2022/04/12 06:35:18;;;;;;;4.25;2.45;;;;;;;19.24;38.03;101573.38;4913002;29;20078;-74
2022/04/12 06:37:47;;;;;;;3.15;2.47;;;;;;;19.25;38.03;101575.06;4914683;29;20048;-75
2022/04/12 06:40:17;;;;;;;3.83;2.10;;;;;;;19.24;37.94;101565.31;4915154;29;20041;-75
2022/04/12 06:42:44;;;;;;;3.47;2.50;;;;;;;19.25;37.92;101574.22;4898050;29;20079;-74
2022/04/12 06:45:12;;;;;;;3.70;2.20;;;;;;;19.26;38.05;101571.41;4915153;29;20052;-76
2022/04/12 06:47:41;;;;;;;4.25;1.92;;;;;;;19.27;38.21;101573.13;4915431;29;20044;-76
2022/04/12 06:50:10;;;;;;;4.13;2.33;;;;;;;19.29;38.19;101572.16;4914908;29;20071;-76
2022/04/12 06:52:38;;;;;;;2.60;1.83;;;;;;;19.29;38.11;101577.53;4914514;29;20431;-76
2022/04/12 06:55:06;;;;;;;3.42;1.88;;;;;;;19.29;37.95;101572.16;4897169;29;20530;-75
2022/04/12 06:57:36;;;;;;;4.25;2.40;;;;;;;19.30;38.37;101572.03;4910161;29;20057;-75
2022/04/12 07:00:06;;;;;;;4.63;2.42;;;;;;;19.32;38.25;101577.28;4884077;28;20059;-73
2022/04/12 07:02:34;;;;;;;4.03;2.10;;;;;;;19.34;38.07;101575.34;4885307;29;20048;-74
2022/04/12 07:05:03;;;;;;;3.03;2.10;;;;;;;19.34;38.21;101572.69;4892769;29;20052;-73
2022/04/12 07:07:31;;;;;;;3.53;1.90;;;;;;;19.35;38.06;101571.69;4894644;29;20055;-74
2022/04/12 07:09:58;;;;;;;3.97;2.15;;;;;;;19.37;38.35;101572.47;4895463;29;20523;-74
2022/04/12 07:12:26;;;;;;;5.00;2.28;;;;;;;19.37;38.60;101573.31;4894048;29;20048;-74
2022/04/12 07:14:53;;;;;;;4.35;2.00;;;;;;;19.40;38.44;101577.56;4889926;29;20554;-73
2022/04/12 07:17:21;;;;;;;3.65;1.77;;;;;;;19.42;39.20;101573.81;4894625;29;20052;-73
2022/04/12 07:19:48;;;;;;;5.28;2.05;;;;;;;19.43;38.55;101578.22;4895563;29;20044;-74
2022/04/12 07:22:16;;;;;;;7.80;2.72;;;;;;;19.45;39.01;101580.78;4892335;29;20477;-73
2022/04/12 07:24:43;;;;;;;3.60;2.08;;;;;;;19.46;39.09;101580.66;4894472;29;20049;-73
2022/04/12 07:27:11;;;;;;;5.75;2.35;;;;;;;19.48;38.49;101572.47;4894909;29;20057;-74
2022/04/12 07:29:38;;;;;;;4.78;2.30;;;;;;;19.49;37.94;101571.53;4894515;29;20056;-74
2022/04/12 07:32:06;;;;;;;3.88;2.15;;;;;;;19.50;37.99;101568.72;4893737;29;20388;-73
2022/04/12 07:34:34;;;;;;;3.47;2.20;;;;;;;19.52;37.34;101576.66;4894586;29;20063;-71
2022/04/12 07:37:02;;;;;;;5.68;2.50;;;;;;;19.52;37.58;101577.50;4894769;29;20041;-73
2022/04/12 07:39:29;;;;;;;3.83;2.40;;;;;;;19.54;37.26;101568.50;4894378;29;20048;-73
2022/04/12 07:41:56;;;;;;;5.78;2.15;;;;;;;19.53;37.05;101573.03;4894560;29;20051;-73
2022/04/12 07:44:23;;;;;;;2.83;2.10;;;;;;;19.54;37.34;101576.56;4893806;29;20056;-72
2022/04/12 07:46:51;;;;;;;4.40;2.15;;;;;;;19.54;37.67;101574.72;4894793;29;20055;-73
2022/04/12 07:49:18;;;;;;;4.78;2.38;;;;;;;19.56;38.06;101583.50;4893877;29;20045;-72
2022/04/12 07:51:46;;;;;;;4.28;2.30;;;;;;;19.57;38.36;101579.00;4894475;29;20392;-72
2022/04/12 07:54:14;;;;;;;5.22;2.38;;;;;;;19.58;38.28;101586.94;4878537;28;20416;-74
2022/04/12 07:56:41;;;;;;;5.05;2.03;;;;;;;19.59;38.57;101582.44;4893307;29;20420;-74
2022/04/12 07:59:10;;;;;;;2.40;1.75;;;;;;;19.61;38.32;101588.56;4893083;29;20436;-73
2022/04/12 08:01:38;;;;;;;2.70;2.03;;;;;;;19.61;38.16;101597.50;4894347;29;20055;-73
2022/04/12 08:04:05;;;;;;;4.65;1.92;;;;;;;19.62;37.81;101588.47;4893043;29;20057;-73
2022/04/12 08:06:33;;;;;;;4.03;2.05;;;;;;;19.64;38.37;101582.97;4894348;29;20400;-73
2022/04/12 08:09:00;;;;;;;6.22;1.90;;;;;;;19.65;39.12;101592.75;4894120;29;20048;-72
2022/04/12 08:11:28;;;;;;;6.18;2.08;;;;;;;19.66;38.90;101576.53;4893933;29;20052;-73
2022/04/12 08:13:55;;;;;;;3.25;2.00;;;;;;;19.68;38.86;101585.31;4892303;29;20500;-72
2022/04/12 08:16:22;;;;;;;3.58;1.77;;;;;;;19.68;38.76;101574.56;4894183;29;20523;-73
2022/04/12 08:18:50;;;;;;;6.38;2.35;;;;;;;19.68;38.87;101574.56;4894752;29;20045;-74
2022/04/12 08:21:35;;;;;;;4.68;1.90;;;;;;;19.70;38.70;101575.31;4892997;29;20053;-73
2022/04/12 08:24:03;;;;;;;5.53;2.03;;;;;;;19.70;38.29;101572.63;4894386;29;20405;-75
2022/04/12 08:26:31;;;;;;;3.72;1.90;;;;;;;19.72;38.69;101578.72;4894044;29;20071;-73
2022/04/12 08:28:58;;;;;;;3.30;2.20;;;;;;;19.73;38.10;101580.47;4897669;29;20052;-74
2022/04/12 08:31:26;;;;;;;5.55;2.55;;;;;;;19.73;38.20;101575.09;4896267;29;20055;-73
2022/04/12 08:33:54;;;;;;;5.55;2.00;;;;;;;19.72;37.86;101576.03;4896752;29;20500;-70
2022/04/12 08:36:22;;;;;;;6.53;2.60;;;;;;;19.73;36.26;101574.25;4886481;29;20051;-71
2022/04/12 08:38:53;;;;;;;5.63;2.10;;;;;;;19.73;37.24;101576.94;4879089;29;20489;-72
2022/04/12 08:41:26;;;;;;;3.75;2.40;;;;;;;19.73;37.88;101571.56;4888303;29;20053;-73
2022/04/12 08:43:56;;;;;;;5.28;2.15;;;;;;;19.72;37.71;101578.72;4897467;28;20440;-72
2022/04/12 08:46:25;;;;;;;2.72;2.00;;;;;;;19.73;37.82;101577.78;4896449;29;20048;-71
2022/04/12 08:48:57;;;;;;;4.47;1.90;;;;;;;19.74;37.95;101581.31;4897726;29;20400;-72
2022/04/12 08:51:30;;;;;;;4.10;2.13;;;;;;;19.73;37.93;101580.47;4892338;29;20068;-73
2022/04/12 08:53:58;;;;;;;6.40;2.55;;;;;;;19.74;38.04;101581.31;4891421;29;20053;-76
2022/04/12 08:56:28;;;;;;;3.78;2.35;;;;;;;19.74;37.73;101584.00;4896352;29;20049;-77
2022/04/12 08:58:56;;;;;;;8.38;2.38;;;;;;;19.74;38.30;101584.00;4897214;29;20056;-75
2022/04/12 09:01:38;;;;;;;6.88;2.13;;;;;;;19.75;37.96;101586.56;4896241;29;20433;-73
2022/04/12 09:04:06;;;;;;;4.32;2.58;;;;;;;19.76;37.91;101587.41;4897055;29;20088;-73
2022/04/12 09:06:34;;;;;;;5.35;2.08;;;;;;;19.76;37.49;101584.72;4879503;29;20385;-73
2022/04/12 09:09:15;;;;;;;5.15;2.00;;;;;;;19.74;37.22;101584.84;4897157;29;20053;-73
2022/04/12 09:11:43;;;;;;;5.03;2.25;;;;;;;19.75;37.59;101583.03;4896948;29;20044;-73
2022/04/12 09:14:15;;;;;;;6.00;2.25;;;;;;;19.74;37.87;101582.16;4893141;29;20501;-73
2022/04/12 09:16:43;;;;;;;5.30;2.30;;;;;;;19.74;37.77;101574.13;4878981;29;20053;-73
2022/04/12 09:19:11;;;;;;;4.57;2.35;;;;;;;19.75;38.03;101575.81;4877477;29;20060;-73
2022/04/12 09:21:46;;;;;;;4.28;2.55;;;;;;;19.75;37.84;101578.50;4878145;29;20071;-73
2022/04/12 09:24:20;;;;;;;3.60;2.20;;;;;;;19.75;37.98;101577.66;4878386;29;20045;-73
2022/04/12 09:26:56;;;;;;;3.88;2.13;;;;;;;19.76;37.61;101590.09;4892350;29;20068;-73
2022/04/12 09:29:27;;;;;;;6.38;2.80;;;;;;;19.75;37.38;101583.88;4878054;29;20128;-74
2022/04/12 09:31:58;;;;;;;4.60;2.40;;;;;;;19.73;37.46;101575.09;4877949;29;20053;-74
2022/04/12 09:34:26;;;;;;;4.97;2.42;;;;;;;19.74;37.20;101575.94;4878294;29;20049;-74
2022/04/12 09:37:24;;;;;;;4.10;2.45;;;;;;;19.73;36.75;101577.78;4877722;29;20405;-74
2022/04/12 09:39:59;;;;;;;10.10;3.85;;;;;;;19.70;35.91;101572.63;4877774;29;20424;-74
2022/04/12 09:42:42;;;;;;;7.07;3.72;;;;;;;19.68;36.34;101566.50;4892125;29;20057;-73
2022/04/12 09:45:14;;;;;;;5.93;3.10;;;;;;;19.68;36.53;101565.66;4878024;29;20057;-74
2022/04/12 09:47:43;;;;;;;4.30;2.53;;;;;;;19.68;37.10;101563.81;4876615;29;20049;-74
2022/04/12 09:50:32;;;;;;;4.50;2.65;;;;;;;19.69;37.13;101557.50;4877973;29;20049;-74
2022/04/12 09:53:02;;;;;;;5.70;2.75;;;;;;;19.69;37.20;101553.97;4877660;29;20049;-74
2022/04/12 09:55:34;;;;;;;6.15;2.63;;;;;;;19.69;36.93;101556.63;4877916;29;20056;-74
2022/04/12 09:58:11;;;;;;;4.00;2.85;;;;;;;19.68;36.88;101554.91;4878272;29;20060;-73
2022/04/12 10:00:40;;;;;;;5.28;2.85;;;;;;;19.69;37.00;101554.81;4876932;29;20045;-74
2022/04/12 10:03:10;;;;;;;4.03;2.60;;;;;;;19.70;37.14;101552.97;4877831;29;20049;-74
2022/04/12 10:05:37;;;;;;;4.43;2.60;;;;;;;19.70;37.29;101556.50;4877507;29;20061;-74
2022/04/12 10:08:10;;;;;;;4.05;2.63;;;;;;;19.70;37.22;101545.78;4877307;29;20057;-74
2022/04/12 10:10:41;;;;;;;6.77;3.03;;;;;;;19.70;37.01;101537.72;4877619;29;20045;-74
2022/04/12 10:13:10;;;;;;;3.95;2.08;;;;;;;19.69;37.02;101546.75;4877533;29;20135;-74
2022/04/12 10:15:38;;;;;;;6.90;2.63;;;;;;;19.70;37.08;101537.72;4876114;29;20064;-73
2022/04/12 10:18:06;;;;;;;3.67;3.00;;;;;;;19.70;37.15;101540.41;4877500;29;20064;-72
2022/04/12 10:20:33;;;;;;;4.15;2.53;;;;;;;19.70;37.18;101529.66;4877311;29;20053;-74
2022/04/12 10:23:02;;;;;;;3.35;2.45;;;;;;;19.69;37.22;101527.09;4877384;29;20049;-72
2022/04/12 10:25:29;;;;;;;6.07;2.90;;;;;;;19.70;37.23;101524.28;4875315;29;20520;-72
2022/04/12 10:28:03;;;;;;;6.68;3.92;;;;;;;19.72;36.62;101519.63;4877275;29;20060;-73
2022/04/12 10:30:31;;;;;;;4.43;2.78;;;;;;;19.74;36.99;101515.00;4877567;29;20053;-73
2022/04/12 10:33:16;;;;;;;5.10;2.67;;;;;;;19.73;40.11;101507.94;4877375;29;20049;-74
2022/04/12 10:35:55;;;;;;;4.50;3.22;;;;;;;19.74;44.81;101509.63;4877370;29;20053;-74
2022/04/12 10:38:25;;;;;;;5.40;3.88;;;;;;;19.70;44.47;101510.84;4877408;29;20413;-74
2022/04/12 10:40:56;;;;;;;7.53;3.55;;;;;;;19.66;44.29;101509.38;4877646;29;20048;-73
2022/04/12 10:43:33;;;;;;;6.88;3.55;;;;;;;19.63;45.91;101506.06;4877469;29;20060;-74
2022/04/12 10:46:02;;;;;;;5.32;3.30;;;;;;;19.60;45.35;101515.16;4876908;29;20057;-74
2022/04/12 10:48:31;;;;;;;5.75;3.40;;;;;;;19.59;46.40;101502.72;4876810;29;20056;-72
2022/04/12 10:51:00;;;;;;;5.22;3.42;;;;;;;19.58;46.38;101503.69;4876411;29;20378;-74
2022/04/12 10:53:39;;;;;;;8.65;5.88;;;;;;;19.56;41.81;101504.78;4875075;29;20057;-74
2022/04/12 10:56:14;;;;;;;5.90;4.18;;;;;;;19.55;45.89;101501.22;4876828;29;20045;-73
2022/04/12 10:58:43;;;;;;;5.60;3.42;;;;;;;19.54;46.12;101488.78;4876795;29;20041;-74
2022/04/12 11:01:26;;;;;;;4.78;3.97;;;;;;;19.54;45.13;101502.22;4876934;29;20413;-74
2022/04/12 11:03:55;;;;;;;6.57;4.72;;;;;;;19.52;44.74;101496.09;4876816;29;20049;-73
2022/04/12 11:06:27;;;;;;;6.75;4.63;;;;;;;19.50;44.55;101493.53;4876776;29;20052;-74
2022/04/12 11:09:06;;;;;;;9.13;5.10;;;;;;;19.50;44.59;101498.06;4877077;29;20053;-74
2022/04/12 11:11:39;;;;;;;6.70;5.35;;;;;;;19.48;45.05;101487.41;4890388;29;20056;-74
2022/04/12 11:14:37;;;;;;;5.63;4.57;;;;;;;19.48;45.64;101492.78;4893075;29;20509;-74
2022/04/12 11:17:09;;;;;;;6.32;4.53;;;;;;;19.48;46.96;101483.88;4880133;28;20060;-73
2022/04/12 11:19:48;;;;;;;7.60;4.75;;;;;;;19.49;47.17;101480.22;4895393;29;20052;-73
2022/04/12 11:22:17;;;;;;;5.28;4.65;;;;;;;19.49;48.28;101480.22;4895320;29;20056;-73
2022/04/12 11:25:14;;;;;;;7.03;5.05;;;;;;;19.50;47.95;101473.88;4895180;29;20052;-73
2022/04/12 11:27:41;;;;;;;6.20;4.50;;;;;;;19.49;47.86;101470.34;4894111;29;20389;-73
2022/04/12 11:30:13;;;;;;;5.60;4.43;;;;;;;19.49;48.33;101469.50;4893851;29;20052;-71
2022/04/12 11:32:41;;;;;;;7.60;5.88;;;;;;;19.50;47.42;101466.69;4895549;29;20044;-74
2022/04/12 11:35:09;;;;;;;6.82;4.88;;;;;;;19.50;47.71;101461.31;4894779;29;20388;-74
2022/04/12 11:37:41;;;;;;;8.68;5.50;;;;;;;19.50;47.87;101463.13;4895122;29;20052;-74